createdAt,value
2018-12-30T00:00:29.666Z,21.50
2018-12-30T00:01:29.677Z,20.20
2018-12-30T00:02:29.689Z,27.00
2018-12-30T00:03:29.697Z,21.70
2018-12-30T00:04:29.708Z,23.90
2018-12-30T00:05:29.717Z,21.80
2018-12-30T00:06:29.733Z,20.50
2018-12-30T00:07:29.740Z,27.90
2018-12-30T00:08:29.767Z,21.50
2018-12-30T00:09:29.766Z,24.10
2018-12-30T00:10:29.773Z,21.00
2018-12-30T00:11:29.792Z,18.70
2018-12-30T00:12:29.804Z,24.30
2018-12-30T00:13:29.813Z,21.60
2018-12-30T00:14:29.819Z,21.90
2018-12-30T00:15:29.832Z,20.20
2018-12-30T00:16:29.844Z,25.80
2018-12-30T00:17:29.856Z,23.60
2018-12-30T00:18:29.869Z,21.40
2018-12-30T00:19:29.880Z,23.00
2018-12-30T00:20:29.892Z,22.80
2018-12-30T00:21:29.904Z,18.50
2018-12-30T00:22:29.913Z,24.60
2018-12-30T00:23:29.928Z,23.50
2018-12-30T00:24:29.945Z,27.60
2018-12-30T00:25:29.951Z,25.70
2018-12-30T00:26:29.961Z,20.10
2018-12-30T00:27:29.970Z,25.30
2018-12-30T00:28:29.985Z,25.20
2018-12-30T00:29:30.005Z,19.40
2018-12-30T00:30:30.004Z,21.90
2018-12-30T00:31:30.017Z,21.10
2018-12-30T00:32:30.033Z,22.10
2018-12-30T00:33:30.050Z,16.10
2018-12-30T00:34:30.051Z,24.40
2018-12-30T00:35:30.062Z,19.70
2018-12-30T00:36:30.074Z,21.50
2018-12-30T00:37:30.088Z,19.40
2018-12-30T00:38:30.099Z,12.40
2018-12-30T00:39:30.113Z,18.80
2018-12-30T00:40:30.121Z,20.60
2018-12-30T00:41:30.133Z,20.10
2018-12-30T00:42:30.144Z,20.60
2018-12-30T00:43:30.154Z,23.20
2018-12-30T00:44:30.167Z,17.80
2018-12-30T00:45:30.180Z,15.70
2018-12-30T00:46:30.192Z,15.90
2018-12-30T00:47:30.203Z,17.00
2018-12-30T00:48:30.211Z,16.90
2018-12-30T00:49:30.223Z,13.30
2018-12-30T00:50:30.233Z,18.90
2018-12-30T00:51:30.247Z,13.60
2018-12-30T00:52:30.259Z,16.20
2018-12-30T00:53:30.271Z,14.00
2018-12-30T00:54:30.280Z,17.90
2018-12-30T00:55:30.300Z,16.30
2018-12-30T00:56:30.404Z,15.40
2018-12-30T00:57:30.318Z,14.10
2018-12-30T00:58:31.111Z,20.20
2018-12-30T00:59:30.340Z,12.70
2018-12-30T01:00:30.351Z,16.40
2018-12-30T01:01:30.375Z,14.80
2018-12-30T01:02:30.382Z,13.20
2018-12-30T01:03:30.384Z,13.90
2018-12-30T01:04:30.398Z,15.00
2018-12-30T01:05:30.408Z,14.30
2018-12-30T01:06:30.421Z,14.30
2018-12-30T01:07:30.430Z,14.90
2018-12-30T01:08:30.456Z,12.60
2018-12-30T01:09:30.456Z,14.60
2018-12-30T01:10:30.467Z,15.50
2018-12-30T01:11:30.479Z,16.50
2018-12-30T01:12:30.488Z,15.40
2018-12-30T01:13:30.500Z,16.50
2018-12-30T01:14:30.513Z,14.30
2018-12-30T01:15:30.522Z,16.80
2018-12-30T01:16:30.537Z,16.50
2018-12-30T01:17:30.546Z,15.60
2018-12-30T01:18:30.557Z,14.70
2018-12-30T01:19:30.571Z,15.00
2018-12-30T01:20:30.575Z,18.30
2018-12-30T01:21:30.586Z,15.00
2018-12-30T01:22:30.598Z,17.60
2018-12-30T01:23:30.610Z,20.60
2018-12-30T01:24:30.619Z,13.10
2018-12-30T01:25:30.632Z,16.10
2018-12-30T01:26:30.641Z,17.70
2018-12-30T01:27:30.651Z,16.40
2018-12-30T01:28:30.674Z,18.40
2018-12-30T01:29:30.678Z,19.40
2018-12-30T01:30:30.690Z,19.00
2018-12-30T01:31:30.702Z,16.80
2018-12-30T01:32:30.713Z,15.00
2018-12-30T01:33:30.724Z,16.70
2018-12-30T01:34:30.735Z,17.10
2018-12-30T01:35:30.746Z,19.30
2018-12-30T01:36:30.756Z,21.70
2018-12-30T01:37:30.770Z,17.90
2018-12-30T01:38:30.781Z,18.70
2018-12-30T01:40:30.919Z,18.40
2018-12-30T01:41:30.822Z,17.30
2018-12-30T01:42:30.830Z,21.20
2018-12-30T01:43:30.839Z,22.30
2018-12-30T01:44:30.851Z,20.30
2018-12-30T01:45:30.863Z,18.50
2018-12-30T01:46:30.874Z,18.90
2018-12-30T01:47:30.883Z,15.60
2018-12-30T01:48:30.894Z,17.80
2018-12-30T01:49:30.913Z,17.00
2018-12-30T01:50:30.923Z,17.40
2018-12-30T01:51:33.152Z,14.50
2018-12-30T01:52:30.958Z,12.30
2018-12-30T01:53:31.002Z,15.80
2018-12-30T01:54:30.967Z,19.10
2018-12-30T01:55:30.977Z,17.20
2018-12-30T01:56:30.988Z,17.10
2018-12-30T01:57:31.013Z,16.50
2018-12-30T01:58:31.010Z,14.40
2018-12-30T01:59:31.023Z,17.00
2018-12-30T02:00:31.036Z,12.80
2018-12-30T02:01:31.051Z,11.00
2018-12-30T02:02:31.066Z,15.30
2018-12-30T02:03:31.068Z,16.90
2018-12-30T02:04:31.081Z,13.00
2018-12-30T02:05:31.097Z,15.20
2018-12-30T02:06:31.104Z,16.00
2018-12-30T02:07:31.117Z,14.90
2018-12-30T02:08:31.126Z,14.20
2018-12-30T02:09:31.142Z,13.80
2018-12-30T02:10:31.158Z,13.20
2018-12-30T02:11:31.164Z,15.40
2018-12-30T02:12:31.179Z,12.10
2018-12-30T02:13:31.188Z,16.20
2018-12-30T02:14:31.193Z,14.50
2018-12-30T02:15:31.205Z,19.00
2018-12-30T02:16:31.219Z,14.80
2018-12-30T02:17:31.230Z,15.00
2018-12-30T02:18:31.240Z,12.90
2018-12-30T02:19:31.253Z,9.50
2018-12-30T02:20:31.267Z,17.10
2018-12-30T02:21:31.273Z,13.60
2018-12-30T02:22:31.287Z,12.80
2018-12-30T02:23:31.297Z,11.70
2018-12-30T02:24:31.311Z,14.70
2018-12-30T02:25:31.323Z,15.40
2018-12-30T02:26:31.332Z,14.70
2018-12-30T02:27:31.343Z,16.30
2018-12-30T02:28:31.356Z,14.00
2018-12-30T02:29:31.373Z,16.50
2018-12-30T02:30:31.381Z,15.70
2018-12-30T02:31:31.393Z,14.80
2018-12-30T02:32:31.412Z,13.00
2018-12-30T02:33:31.414Z,18.60
2018-12-30T02:34:31.434Z,14.40
2018-12-30T02:35:31.440Z,16.80
2018-12-30T02:36:31.452Z,15.90
2018-12-30T02:37:31.461Z,12.40
2018-12-30T02:38:31.474Z,13.20
2018-12-30T02:39:31.481Z,14.00
2018-12-30T02:40:31.501Z,14.30
2018-12-30T02:41:31.508Z,16.60
2018-12-30T02:42:31.521Z,14.10
2018-12-30T02:43:31.623Z,13.40
2018-12-30T02:44:31.548Z,12.30
2018-12-30T02:45:31.569Z,13.40
2018-12-30T02:46:31.569Z,15.40
2018-12-30T02:47:31.581Z,18.50
2018-12-30T02:48:31.588Z,11.70
2018-12-30T02:49:31.600Z,14.10
2018-12-30T02:50:31.608Z,11.40
2018-12-30T02:51:31.623Z,15.00
2018-12-30T02:52:31.636Z,12.90
2018-12-30T02:53:31.648Z,11.30
2018-12-30T02:54:31.656Z,15.50
2018-12-30T02:55:31.670Z,14.40
2018-12-30T02:56:31.692Z,14.00
2018-12-30T02:57:31.689Z,12.20
2018-12-30T02:58:31.751Z,14.90
2018-12-30T02:59:31.714Z,15.10
2018-12-30T03:00:31.725Z,18.10
2018-12-30T03:01:31.738Z,16.50
2018-12-30T03:02:31.746Z,12.70
2018-12-30T03:03:31.759Z,15.40
2018-12-30T03:04:31.777Z,15.30
2018-12-30T03:05:31.800Z,17.00
2018-12-30T03:06:31.793Z,17.90
2018-12-30T03:07:31.805Z,15.40
2018-12-30T03:08:31.832Z,21.60
2018-12-30T03:09:31.840Z,20.30
2018-12-30T03:10:31.844Z,15.60
2018-12-30T03:11:31.851Z,18.90
2018-12-30T03:12:31.865Z,16.30
2018-12-30T03:13:31.879Z,17.60
2018-12-30T03:14:31.886Z,18.00
2018-12-30T03:15:31.899Z,18.00
2018-12-30T03:16:31.914Z,15.80
2018-12-30T03:17:31.948Z,14.40
2018-12-30T03:18:31.934Z,18.30
2018-12-30T03:19:31.950Z,17.70
2018-12-30T03:20:31.961Z,17.40
2018-12-30T03:21:31.972Z,14.10
2018-12-30T03:22:31.981Z,17.60
2018-12-30T03:23:32.042Z,14.90
2018-12-30T03:24:32.004Z,14.80
2018-12-30T03:25:32.020Z,17.40
2018-12-30T03:26:32.026Z,20.10
2018-12-30T03:27:32.041Z,14.00
2018-12-30T03:28:32.060Z,13.60
2018-12-30T03:29:32.065Z,18.70
2018-12-30T03:30:32.074Z,14.50
2018-12-30T03:31:32.090Z,16.60
2018-12-30T03:32:32.110Z,16.20
2018-12-30T03:33:32.110Z,17.00
2018-12-30T03:34:32.124Z,14.20
2018-12-30T03:35:32.140Z,15.40
2018-12-30T03:36:32.156Z,16.50
2018-12-30T03:37:32.162Z,16.60
2018-12-30T03:38:32.168Z,18.20
2018-12-30T03:39:32.179Z,13.20
2018-12-30T03:40:32.198Z,13.30
2018-12-30T03:41:32.220Z,16.90
2018-12-30T03:42:32.210Z,13.60
2018-12-30T03:43:32.222Z,14.30
2018-12-30T03:44:32.236Z,16.00
2018-12-30T03:45:32.245Z,14.30
2018-12-30T03:46:32.265Z,16.40
2018-12-30T03:47:32.270Z,14.20
2018-12-30T03:48:32.279Z,18.80
2018-12-30T03:49:32.292Z,20.10
2018-12-30T03:50:32.323Z,12.40
2018-12-30T03:51:32.315Z,14.00
2018-12-30T03:52:32.343Z,16.80
2018-12-30T03:53:32.340Z,13.60
2018-12-30T03:54:32.352Z,18.30
2018-12-30T03:55:32.362Z,19.80
2018-12-30T03:56:32.453Z,11.00
2018-12-30T03:57:32.385Z,11.60
2018-12-30T03:58:32.399Z,13.80
2018-12-30T03:59:32.409Z,12.40
2018-12-30T04:00:32.431Z,14.90
2018-12-30T04:01:32.500Z,12.10
2018-12-30T04:02:32.440Z,15.10
2018-12-30T04:03:32.591Z,15.50
2018-12-30T04:04:32.464Z,16.80
2018-12-30T04:05:32.480Z,18.50
2018-12-30T04:06:32.587Z,12.40
2018-12-30T04:07:32.530Z,15.40
2018-12-30T04:08:32.516Z,19.20
2018-12-30T04:09:32.535Z,13.40
2018-12-30T04:10:32.532Z,14.90
2018-12-30T04:11:32.545Z,14.90
2018-12-30T04:12:32.556Z,13.40
2018-12-30T04:13:32.570Z,16.70
2018-12-30T04:14:32.581Z,14.70
2018-12-30T04:15:32.589Z,15.80
2018-12-30T04:16:32.604Z,17.70
2018-12-30T04:17:32.618Z,15.20
2018-12-30T04:18:32.931Z,14.50
2018-12-30T04:19:32.639Z,17.30
2018-12-30T04:20:32.649Z,17.10
2018-12-30T04:21:32.681Z,17.10
2018-12-30T04:22:33.896Z,17.00
2018-12-30T04:23:32.684Z,17.70
2018-12-30T04:24:32.698Z,12.70
2018-12-30T04:25:32.719Z,18.90
2018-12-30T04:26:32.722Z,17.40
2018-12-30T04:27:32.730Z,15.50
2018-12-30T04:28:32.745Z,17.70
2018-12-30T04:29:32.755Z,18.60
2018-12-30T04:30:32.768Z,15.70
2018-12-30T04:31:32.787Z,18.50
2018-12-30T04:32:32.791Z,21.30
2018-12-30T04:33:32.801Z,20.60
2018-12-30T04:34:32.810Z,16.60
2018-12-30T04:35:32.823Z,15.80
2018-12-30T04:36:32.833Z,15.90
2018-12-30T04:37:32.852Z,17.30
2018-12-30T04:38:32.862Z,17.20
2018-12-30T04:39:32.889Z,19.90
2018-12-30T04:40:32.881Z,15.80
2018-12-30T04:41:32.892Z,17.90
2018-12-30T04:42:32.904Z,14.90
2018-12-30T04:43:32.914Z,20.20
2018-12-30T04:44:32.925Z,13.40
2018-12-30T04:45:32.941Z,16.30
2018-12-30T04:46:32.954Z,17.20
2018-12-30T04:47:32.967Z,19.60
2018-12-30T04:48:33.002Z,16.80
2018-12-30T04:49:32.991Z,16.10
2018-12-30T04:50:32.998Z,18.00
2018-12-30T04:51:33.011Z,19.00
2018-12-30T04:52:33.019Z,14.00
2018-12-30T04:53:33.034Z,20.10
2018-12-30T04:54:33.126Z,18.50
2018-12-30T04:55:33.055Z,16.10
2018-12-30T04:56:33.072Z,16.00
2018-12-30T04:57:33.076Z,16.70
2018-12-30T04:58:33.085Z,14.50
2018-12-30T04:59:33.109Z,19.80
2018-12-30T05:00:33.123Z,18.00
2018-12-30T05:01:33.123Z,20.10
2018-12-30T05:02:33.134Z,16.40
2018-12-30T05:03:33.151Z,19.50
2018-12-30T05:04:33.160Z,18.40
2018-12-30T05:05:33.189Z,14.40
2018-12-30T05:06:33.185Z,14.90
2018-12-30T05:07:33.189Z,18.60
2018-12-30T05:08:33.202Z,19.80
2018-12-30T05:09:33.215Z,21.20
2018-12-30T05:10:33.225Z,19.20
2018-12-30T05:11:33.237Z,19.50
2018-12-30T05:12:33.250Z,19.90
2018-12-30T05:13:33.260Z,15.20
2018-12-30T05:14:33.270Z,19.70
2018-12-30T05:15:33.290Z,17.50
2018-12-30T05:16:33.297Z,14.90
2018-12-30T05:17:33.310Z,14.70
2018-12-30T05:18:33.324Z,16.60
2018-12-30T05:19:33.334Z,18.90
2018-12-30T05:20:33.344Z,19.50
2018-12-30T05:21:33.355Z,17.00
2018-12-30T05:22:33.903Z,20.20
2018-12-30T05:23:33.483Z,20.50
2018-12-30T05:24:33.397Z,16.80
2018-12-30T05:25:33.402Z,19.60
2018-12-30T05:26:33.412Z,16.70
2018-12-30T05:27:33.424Z,16.50
2018-12-30T05:28:33.433Z,17.80
2018-12-30T05:29:33.445Z,17.90
2018-12-30T05:30:33.467Z,15.30
2018-12-30T05:31:33.469Z,21.40
2018-12-30T05:32:33.483Z,15.20
2018-12-30T05:33:33.492Z,22.40
2018-12-30T05:34:33.507Z,17.50
2018-12-30T05:35:33.512Z,19.00
2018-12-30T05:36:33.526Z,18.00
2018-12-30T05:37:33.540Z,19.50
2018-12-30T05:38:33.550Z,15.60
2018-12-30T05:39:33.562Z,19.60
2018-12-30T05:40:33.572Z,17.50
2018-12-30T05:41:33.590Z,18.80
2018-12-30T05:42:33.595Z,14.60
2018-12-30T05:43:33.610Z,17.30
2018-12-30T05:44:33.630Z,16.50
2018-12-30T05:45:33.631Z,17.60
2018-12-30T05:46:33.642Z,16.70
2018-12-30T05:47:33.654Z,18.60
2018-12-30T05:48:33.665Z,18.40
2018-12-30T05:49:33.680Z,21.10
2018-12-30T05:50:33.689Z,20.20
2018-12-30T05:51:33.700Z,16.90
2018-12-30T05:52:33.716Z,18.90
2018-12-30T05:53:33.725Z,19.80
2018-12-30T05:54:33.742Z,17.90
2018-12-30T05:55:33.747Z,19.70
2018-12-30T05:56:33.757Z,16.90
2018-12-30T05:57:33.769Z,17.20
2018-12-30T05:58:33.778Z,15.40
2018-12-30T05:59:33.790Z,18.90
2018-12-30T06:00:33.806Z,17.30
2018-12-30T06:01:33.813Z,18.40
2018-12-30T06:02:33.823Z,13.80
2018-12-30T06:03:33.834Z,19.60
2018-12-30T06:04:33.849Z,16.60
2018-12-30T06:05:33.860Z,19.10
2018-12-30T06:06:33.871Z,18.40
2018-12-30T06:07:33.879Z,18.20
2018-12-30T06:08:33.897Z,18.40
2018-12-30T06:09:33.915Z,22.20
2018-12-30T06:10:33.918Z,17.60
2018-12-30T06:11:33.925Z,16.20
2018-12-30T06:12:33.987Z,17.10
2018-12-30T06:13:33.952Z,20.20
2018-12-30T06:14:33.976Z,18.50
2018-12-30T06:15:33.974Z,20.30
2018-12-30T06:16:33.986Z,18.70
2018-12-30T06:17:33.998Z,20.70
2018-12-30T06:18:34.023Z,15.70
2018-12-30T06:19:34.022Z,20.10
2018-12-30T06:20:34.030Z,21.00
2018-12-30T06:21:34.045Z,19.20
2018-12-30T06:22:34.051Z,23.70
2018-12-30T06:23:34.067Z,17.60
2018-12-30T06:24:34.107Z,21.30
2018-12-30T06:25:34.087Z,16.60
2018-12-30T06:26:34.106Z,19.80
2018-12-30T06:27:34.156Z,18.90
2018-12-30T06:28:34.136Z,17.60
2018-12-30T06:29:34.139Z,22.90
2018-12-30T06:30:34.149Z,18.00
2018-12-30T06:31:34.155Z,16.40
2018-12-30T06:32:34.184Z,21.00
2018-12-30T06:33:34.184Z,17.20
2018-12-30T06:34:34.195Z,19.60
2018-12-30T06:35:34.206Z,14.90
2018-12-30T06:36:34.219Z,14.30
2018-12-30T06:37:34.226Z,16.50
2018-12-30T06:38:34.236Z,19.00
2018-12-30T06:39:34.247Z,18.40
2018-12-30T06:40:34.259Z,19.80
2018-12-30T06:41:34.275Z,18.40
2018-12-30T06:42:34.302Z,15.80
2018-12-30T06:43:34.298Z,18.20
2018-12-30T06:44:34.310Z,17.30
2018-12-30T06:45:34.318Z,18.80
2018-12-30T06:46:34.338Z,18.20
2018-12-30T06:47:34.347Z,17.80
2018-12-30T06:48:34.351Z,19.50
2018-12-30T06:49:34.364Z,20.40
2018-12-30T06:50:34.376Z,16.50
2018-12-30T06:51:34.386Z,14.10
2018-12-30T06:52:34.402Z,20.20
2018-12-30T06:53:34.418Z,17.00
2018-12-30T06:54:34.419Z,21.30
2018-12-30T06:55:34.436Z,18.50
2018-12-30T06:56:34.442Z,15.60
2018-12-30T06:57:34.456Z,17.90
2018-12-30T06:58:34.464Z,15.00
2018-12-30T06:59:34.479Z,18.30
2018-12-30T07:00:35.565Z,16.40
2018-12-30T07:01:34.499Z,18.50
2018-12-30T07:02:34.810Z,17.20
2018-12-30T07:03:34.524Z,21.30
2018-12-30T07:04:34.534Z,14.60
2018-12-30T07:05:34.548Z,16.70
2018-12-30T07:06:34.556Z,13.90
2018-12-30T07:07:34.579Z,20.40
2018-12-30T07:08:34.583Z,16.40
2018-12-30T07:09:34.591Z,18.80
2018-12-30T07:10:34.605Z,15.80
2018-12-30T07:11:34.613Z,21.30
2018-12-30T07:12:34.624Z,17.00
2018-12-30T07:13:34.639Z,18.10
2018-12-30T07:14:34.659Z,25.00
2018-12-30T07:15:34.663Z,21.10
2018-12-30T07:16:34.687Z,22.90
2018-12-30T07:17:34.700Z,18.20
2018-12-30T07:18:34.694Z,19.90
2018-12-30T07:19:34.702Z,18.90
2018-12-30T07:20:34.714Z,19.90
2018-12-30T07:21:34.777Z,15.20
2018-12-30T07:22:34.739Z,22.50
2018-12-30T07:23:34.752Z,15.50
2018-12-30T07:24:34.761Z,26.80
2018-12-30T07:25:34.775Z,20.40
2018-12-30T07:26:34.785Z,17.70
2018-12-30T07:27:34.794Z,17.30
2018-12-30T07:28:34.809Z,19.50
2018-12-30T07:29:34.821Z,19.40
2018-12-30T07:30:34.833Z,21.90
2018-12-30T07:31:34.844Z,21.10
2018-12-30T07:32:34.853Z,20.80
2018-12-30T07:33:34.864Z,21.70
2018-12-30T07:34:34.878Z,20.00
2018-12-30T07:35:34.886Z,25.60
2018-12-30T07:36:34.906Z,18.40
2018-12-30T07:37:34.909Z,20.60
2018-12-30T07:38:34.919Z,26.80
2018-12-30T07:39:34.930Z,20.90
2018-12-30T07:40:34.944Z,20.00
2018-12-30T07:41:34.950Z,18.70
2018-12-30T07:42:34.966Z,21.90
2018-12-30T07:43:34.979Z,22.50
2018-12-30T07:44:34.985Z,19.60
2018-12-30T07:45:34.999Z,20.60
2018-12-30T07:46:35.022Z,22.20
2018-12-30T07:47:35.019Z,21.60
2018-12-30T07:48:35.033Z,29.40
2018-12-30T07:49:35.046Z,21.40
2018-12-30T07:50:35.054Z,17.70
2018-12-30T07:51:35.074Z,23.30
2018-12-30T07:52:35.091Z,19.60
2018-12-30T07:53:35.094Z,19.50
2018-12-30T07:54:35.113Z,22.00
2018-12-30T07:55:35.112Z,22.00
2018-12-30T07:56:35.119Z,27.40
2018-12-30T07:57:35.133Z,25.60
2018-12-30T07:58:35.145Z,23.70
2018-12-30T07:59:35.169Z,25.90
2018-12-30T08:00:35.165Z,23.30
2018-12-30T08:01:35.175Z,20.90
2018-12-30T08:02:35.192Z,24.60
2018-12-30T08:03:35.197Z,19.60
2018-12-30T08:04:35.206Z,22.10
2018-12-30T08:05:35.289Z,22.70
2018-12-30T08:06:35.229Z,20.10
2018-12-30T08:07:35.243Z,23.20
2018-12-30T08:08:35.254Z,27.60
2018-12-30T08:09:35.265Z,20.10
2018-12-30T08:10:35.278Z,25.00
2018-12-30T08:11:35.282Z,25.90
2018-12-30T08:12:35.294Z,21.40
2018-12-30T08:13:35.311Z,18.30
2018-12-30T08:14:35.316Z,22.70
2018-12-30T08:15:35.331Z,26.70
2018-12-30T08:16:35.346Z,22.10
2018-12-30T08:17:35.355Z,19.60
2018-12-30T08:18:35.367Z,20.60
2018-12-30T08:19:35.384Z,18.00
2018-12-30T08:20:35.386Z,21.80
2018-12-30T08:21:35.397Z,29.10
2018-12-30T08:22:35.413Z,18.70
2018-12-30T08:23:35.421Z,24.20
2018-12-30T08:24:35.449Z,22.90
2018-12-30T08:25:35.449Z,21.10
2018-12-30T08:26:35.457Z,23.10
2018-12-30T08:27:35.471Z,18.70
2018-12-30T08:28:35.481Z,21.10
2018-12-30T08:29:35.484Z,23.70
2018-12-30T08:30:35.498Z,22.40
2018-12-30T08:31:35.513Z,26.40
2018-12-30T08:32:35.520Z,23.20
2018-12-30T08:33:35.534Z,19.30
2018-12-30T08:34:35.545Z,22.10
2018-12-30T08:35:35.595Z,24.80
2018-12-30T08:36:36.464Z,24.70
2018-12-30T08:37:35.584Z,24.30
2018-12-30T08:38:35.589Z,18.30
2018-12-30T08:39:35.670Z,18.10
2018-12-30T08:40:35.613Z,24.70
2018-12-30T08:41:35.626Z,28.70
2018-12-30T08:42:35.631Z,23.00
2018-12-30T08:43:35.645Z,18.80
2018-12-30T08:44:35.658Z,23.50
2018-12-30T08:45:35.673Z,21.10
2018-12-30T08:46:35.678Z,20.10
2018-12-30T08:48:35.709Z,21.50
2018-12-30T08:49:35.722Z,25.80
2018-12-30T08:50:35.727Z,22.40
2018-12-30T08:51:35.739Z,26.10
2018-12-30T08:52:35.791Z,17.50
2018-12-30T08:53:35.762Z,24.90
2018-12-30T08:54:35.776Z,19.40
2018-12-30T08:55:35.782Z,21.70
2018-12-30T08:56:35.799Z,18.30
2018-12-30T08:57:35.813Z,24.60
2018-12-30T08:58:35.821Z,13.20
2018-12-30T08:59:35.831Z,19.90
2018-12-30T09:00:35.861Z,19.60
2018-12-30T09:01:35.856Z,17.60
2018-12-30T09:02:35.870Z,22.70
2018-12-30T09:03:35.895Z,20.00
2018-12-30T09:04:35.890Z,25.00
2018-12-30T09:05:35.911Z,17.90
2018-12-30T09:06:35.909Z,19.30
2018-12-30T09:07:35.919Z,21.30
2018-12-30T09:08:35.936Z,17.70
2018-12-30T09:09:35.944Z,21.10
2018-12-30T09:10:35.953Z,19.00
2018-12-30T09:11:35.965Z,20.40
2018-12-30T09:12:35.982Z,19.90
2018-12-30T09:13:35.989Z,19.20
2018-12-30T09:14:36.013Z,19.80
2018-12-30T09:15:36.012Z,17.60
2018-12-30T09:16:36.028Z,19.90
2018-12-30T09:17:36.035Z,15.30
2018-12-30T09:18:36.046Z,24.10
2018-12-30T09:19:36.059Z,22.00
2018-12-30T09:20:36.071Z,23.00
2018-12-30T09:21:36.105Z,19.80
2018-12-30T09:22:36.096Z,18.20
2018-12-30T09:23:37.489Z,17.70
2018-12-30T09:24:36.116Z,21.90
2018-12-30T09:25:36.129Z,22.00
2018-12-30T09:26:36.141Z,16.90
2018-12-30T09:27:36.162Z,16.10
2018-12-30T09:28:36.190Z,26.00
2018-12-30T09:29:36.188Z,18.10
2018-12-30T09:30:36.186Z,18.80
2018-12-30T09:31:36.207Z,19.50
2018-12-30T09:32:36.211Z,19.80
2018-12-30T09:33:36.236Z,16.70
2018-12-30T09:34:36.246Z,17.80
2018-12-30T09:35:36.242Z,13.30
2018-12-30T09:36:36.258Z,17.20
2018-12-30T09:37:36.308Z,17.40
2018-12-30T09:38:36.285Z,18.50
2018-12-30T09:39:36.289Z,18.30
2018-12-30T09:40:36.302Z,18.10
2018-12-30T09:41:36.318Z,22.30
2018-12-30T09:42:36.328Z,17.50
2018-12-30T09:43:36.334Z,20.80
2018-12-30T09:44:36.345Z,14.70
2018-12-30T09:45:36.356Z,23.60
2018-12-30T09:46:36.361Z,14.70
2018-12-30T09:47:36.376Z,18.00
2018-12-30T09:48:36.392Z,18.10
2018-12-30T09:49:36.396Z,16.80
2018-12-30T09:50:36.408Z,17.80
2018-12-30T09:51:36.429Z,18.10
2018-12-30T09:52:36.436Z,17.70
2018-12-30T09:53:36.447Z,18.00
2018-12-30T09:54:36.456Z,18.10
2018-12-30T09:55:36.467Z,16.20
2018-12-30T09:56:36.486Z,16.60
2018-12-30T09:57:36.496Z,17.90
2018-12-30T09:58:36.505Z,16.60
2018-12-30T09:59:36.516Z,15.40
2018-12-30T10:00:36.539Z,16.20
2018-12-30T10:01:36.540Z,12.90
2018-12-30T10:02:36.601Z,16.40
2018-12-30T10:03:36.564Z,16.80
2018-12-30T10:04:36.576Z,18.00
2018-12-30T10:05:36.590Z,17.70
2018-12-30T10:06:36.597Z,12.90
2018-12-30T10:07:36.608Z,14.60
2018-12-30T10:08:36.621Z,12.70
2018-12-30T10:09:36.647Z,16.90
2018-12-30T10:10:36.648Z,14.40
2018-12-30T10:11:37.803Z,12.20
2018-12-30T10:12:36.708Z,17.40
2018-12-30T10:13:36.680Z,16.30
2018-12-30T10:14:36.718Z,12.00
2018-12-30T10:15:36.703Z,15.30
2018-12-30T10:16:36.715Z,16.70
2018-12-30T10:17:36.728Z,16.00
2018-12-30T10:18:36.737Z,13.80
2018-12-30T10:19:36.762Z,14.80
2018-12-30T10:20:36.760Z,16.20
2018-12-30T10:21:36.775Z,17.60
2018-12-30T10:22:36.784Z,13.30
2018-12-30T10:23:36.798Z,12.90
2018-12-30T10:24:36.844Z,15.90
2018-12-30T10:25:36.819Z,13.90
2018-12-30T10:26:36.830Z,13.70
2018-12-30T10:27:36.844Z,17.50
2018-12-30T10:28:36.860Z,13.90
2018-12-30T10:29:36.864Z,12.40
2018-12-30T10:30:36.876Z,13.30
2018-12-30T10:31:36.887Z,14.80
2018-12-30T10:32:36.915Z,16.00
2018-12-30T10:33:36.913Z,14.90
2018-12-30T10:34:36.928Z,12.40
2018-12-30T10:35:36.936Z,11.10
2018-12-30T10:36:36.953Z,16.40
2018-12-30T10:37:36.967Z,13.90
2018-12-30T10:38:36.971Z,16.00
2018-12-30T10:39:36.984Z,14.60
2018-12-30T10:40:36.994Z,13.30
2018-12-30T10:41:37.010Z,11.50
2018-12-30T10:42:37.036Z,15.10
2018-12-30T10:43:37.034Z,20.00
2018-12-30T10:44:37.076Z,14.00
2018-12-30T10:45:37.098Z,18.10
2018-12-30T10:46:37.115Z,15.40
2018-12-30T10:47:37.077Z,16.80
2018-12-30T10:48:37.098Z,14.80
2018-12-30T10:49:37.098Z,14.10
2018-12-30T10:50:37.110Z,12.20
2018-12-30T10:51:37.127Z,12.60
2018-12-30T10:52:37.132Z,13.90
2018-12-30T10:53:37.154Z,14.30
2018-12-30T10:54:37.170Z,17.40
2018-12-30T10:55:37.177Z,15.20
2018-12-30T10:56:37.180Z,12.90
2018-12-30T10:57:37.195Z,19.00
2018-12-30T10:58:37.205Z,15.90
2018-12-30T10:59:37.216Z,11.80
2018-12-30T11:00:37.228Z,12.90
2018-12-30T11:01:37.253Z,14.10
2018-12-30T11:02:37.262Z,13.40
2018-12-30T11:03:37.268Z,12.70
2018-12-30T11:04:37.291Z,11.70
2018-12-30T11:05:37.290Z,14.80
2018-12-30T11:06:37.301Z,12.10
2018-12-30T11:07:37.313Z,15.40
2018-12-30T11:08:37.326Z,17.30
2018-12-30T11:09:37.335Z,13.30
2018-12-30T11:10:37.346Z,13.20
2018-12-30T11:11:37.361Z,12.30
2018-12-30T11:12:37.371Z,11.90
2018-12-30T11:13:37.385Z,12.90
2018-12-30T11:14:37.410Z,13.90
2018-12-30T11:15:37.411Z,14.40
2018-12-30T11:16:37.418Z,11.10
2018-12-30T11:17:37.431Z,18.40
2018-12-30T11:18:37.452Z,11.20
2018-12-30T11:19:37.464Z,14.00
2018-12-30T11:20:37.565Z,13.70
2018-12-30T11:21:37.481Z,12.80
2018-12-30T11:22:37.492Z,15.50
2018-12-30T11:23:37.503Z,10.70
2018-12-30T11:24:37.516Z,16.30
2018-12-30T11:25:37.537Z,11.60
2018-12-30T11:26:37.538Z,12.40
2018-12-30T11:27:37.553Z,8.80
2018-12-30T11:28:37.562Z,12.20
2018-12-30T11:29:37.589Z,12.40
2018-12-30T11:30:37.590Z,12.20
2018-12-30T11:31:37.613Z,14.70
2018-12-30T11:32:37.614Z,12.00
2018-12-30T11:33:37.624Z,10.60
2018-12-30T11:34:37.634Z,9.00
2018-12-30T11:35:37.646Z,11.70
2018-12-30T11:36:37.660Z,14.60
2018-12-30T11:37:37.667Z,13.00
2018-12-30T11:38:37.677Z,12.00
2018-12-30T11:39:37.690Z,8.60
2018-12-30T11:40:37.702Z,16.40
2018-12-30T11:41:37.718Z,14.10
2018-12-30T11:42:37.726Z,10.60
2018-12-30T11:43:37.744Z,11.80
2018-12-30T11:44:37.751Z,16.80
2018-12-30T11:45:37.764Z,12.20
2018-12-30T11:46:37.775Z,13.80
2018-12-30T11:47:37.788Z,12.20
2018-12-30T11:48:37.800Z,12.00
2018-12-30T11:49:37.836Z,11.60
2018-12-30T11:50:37.820Z,11.50
2018-12-30T11:51:37.837Z,13.70
2018-12-30T11:52:37.848Z,14.60
2018-12-30T11:53:37.858Z,10.40
2018-12-30T11:54:37.872Z,12.20
2018-12-30T11:55:37.881Z,13.70
2018-12-30T11:56:37.899Z,10.90
2018-12-30T11:57:37.911Z,12.30
2018-12-30T11:58:37.917Z,14.30
2018-12-30T11:59:37.929Z,9.90
2018-12-30T12:00:37.942Z,8.70
2018-12-30T12:01:37.955Z,10.30
2018-12-30T12:02:37.971Z,9.90
2018-12-30T12:03:37.994Z,10.50
2018-12-30T12:04:37.988Z,12.30
2018-12-30T12:05:38.001Z,11.40
2018-12-30T12:06:38.014Z,12.80
2018-12-30T12:07:38.023Z,11.00
2018-12-30T12:08:38.054Z,13.40
2018-12-30T12:09:38.050Z,10.70
2018-12-30T12:10:38.060Z,11.80
2018-12-30T12:11:38.089Z,11.50
2018-12-30T12:12:38.094Z,12.70
2018-12-30T12:13:38.096Z,12.90
2018-12-30T12:14:38.105Z,8.20
2018-12-30T12:15:38.368Z,9.20
2018-12-30T12:16:38.138Z,8.40
2018-12-30T12:17:38.147Z,12.60
2018-12-30T12:18:38.168Z,12.60
2018-12-30T12:19:38.179Z,11.10
2018-12-30T12:20:38.178Z,11.30
2018-12-30T12:21:38.196Z,11.90
2018-12-30T12:22:38.212Z,7.60
2018-12-30T12:23:38.223Z,9.70
2018-12-30T12:24:38.229Z,12.50
2018-12-30T12:25:38.241Z,14.30
2018-12-30T12:26:38.256Z,11.20
2018-12-30T12:27:38.264Z,13.60
2018-12-30T12:28:38.276Z,10.60
2018-12-30T12:29:38.316Z,10.70
2018-12-30T12:30:38.302Z,12.30
2018-12-30T12:31:38.314Z,8.30
2018-12-30T12:32:38.324Z,12.90
2018-12-30T12:33:38.336Z,11.40
2018-12-30T12:34:38.346Z,12.70
2018-12-30T12:35:38.361Z,11.60
2018-12-30T12:36:38.381Z,14.10
2018-12-30T12:37:38.399Z,11.10
2018-12-30T12:38:38.393Z,12.40
2018-12-30T12:39:38.409Z,11.00
2018-12-30T12:40:38.421Z,9.30
2018-12-30T12:41:38.435Z,10.60
2018-12-30T12:42:38.440Z,11.30
2018-12-30T12:43:38.456Z,13.30
2018-12-30T12:44:38.468Z,10.00
2018-12-30T12:45:38.487Z,15.30
2018-12-30T12:46:38.489Z,9.90
2018-12-30T12:47:38.500Z,13.80
2018-12-30T12:48:38.516Z,13.50
2018-12-30T12:49:38.525Z,13.70
2018-12-30T12:50:38.536Z,9.90
2018-12-30T12:51:38.549Z,11.60
2018-12-30T12:52:38.561Z,9.60
2018-12-30T12:53:38.575Z,9.90
2018-12-30T12:54:38.615Z,9.90
2018-12-30T12:55:38.650Z,11.20